createdAt,value
2022-11-23T00:00:45.076Z,98394.19
2022-11-23T00:03:25.228Z,98390.03
2022-11-23T00:06:17.518Z,98381.41
2022-11-23T00:08:55.645Z,98389.78
2022-11-23T00:11:29.769Z,98389.41
2022-11-23T00:14:13.490Z,98395.56
2022-11-23T00:17:02.406Z,98400.50
2022-11-23T00:19:39.946Z,98398.94
2022-11-23T00:22:30.907Z,98397.63
2022-11-23T00:25:09.306Z,98387.78
2022-11-23T00:27:50.073Z,98383.31
2022-11-23T00:30:43.861Z,98378.97
2022-11-23T00:33:27.766Z,98381.84
2022-11-23T00:36:18.794Z,98387.97
2022-11-23T00:38:59.636Z,98386.00
2022-11-23T00:41:34.814Z,98386.94
2022-11-23T00:44:21.273Z,98385.31
2022-11-23T00:47:06.435Z,98385.31
2022-11-23T00:49:47.817Z,98384.50
2022-11-23T00:52:44.222Z,98378.34
2022-11-23T00:55:24.459Z,98373.38
2022-11-23T00:58:08.791Z,98380.31
2022-11-23T01:00:47.693Z,98374.78
2022-11-23T01:03:32.280Z,98376.59
2022-11-23T01:06:31.421Z,98384.81
2022-11-23T01:09:12.264Z,98378.44
2022-11-23T01:12:01.072Z,98382.38
2022-11-23T01:14:42.909Z,98376.78
2022-11-23T01:17:24.164Z,98371.69
2022-11-23T01:20:02.393Z,98373.00
2022-11-23T01:22:55.220Z,98362.66
2022-11-23T01:25:42.144Z,98356.88
2022-11-23T01:28:23.036Z,98356.81
2022-11-23T01:31:06.825Z,98364.63
2022-11-23T01:33:47.612Z,98356.44
2022-11-23T01:36:29.742Z,98351.47
2022-11-23T01:39:16.591Z,98345.91
2022-11-23T01:41:54.310Z,98339.75
2022-11-23T01:44:44.308Z,98345.47
2022-11-23T01:47:22.495Z,98344.56
2022-11-23T01:50:01.672Z,98342.09
2022-11-23T01:52:49.024Z,98326.03
2022-11-23T01:55:35.379Z,98322.13
2022-11-23T01:58:25.113Z,98323.28
2022-11-23T02:01:09.371Z,98322.28
2022-11-23T02:03:54.543Z,98324.06
2022-11-23T02:06:38.220Z,98318.72
2022-11-23T02:09:16.556Z,98313.59
2022-11-23T02:11:49.515Z,98328.63
2022-11-23T02:14:41.141Z,98326.81
2022-11-23T02:17:22.185Z,98316.56
2022-11-23T02:20:18.972Z,98321.22
2022-11-23T02:23:19.266Z,98330.50
2022-11-23T02:26:09.752Z,98327.34
2022-11-23T02:28:52.494Z,98330.84
2022-11-23T02:31:30.931Z,98322.34
2022-11-23T02:34:23.866Z,98311.00
2022-11-23T02:37:11.578Z,98307.34
2022-11-23T02:40:02.367Z,98323.06
2022-11-23T02:42:51.772Z,98324.69
2022-11-23T02:45:39.766Z,98325.84
2022-11-23T02:48:31.568Z,98339.03
2022-11-23T02:51:18.770Z,98321.53
2022-11-23T02:53:59.451Z,98324.03
2022-11-23T02:56:46.062Z,98327.75
2022-11-23T02:59:35.602Z,98339.72
2022-11-23T03:02:26.175Z,98347.94
2022-11-23T03:05:12.802Z,98346.00
2022-11-23T03:07:59.740Z,98346.09
2022-11-23T03:10:42.445Z,98338.94
2022-11-23T03:13:31.966Z,98331.03
2022-11-23T03:16:17.224Z,98336.00
2022-11-23T03:19:04.759Z,98331.09
2022-11-23T03:21:57.211Z,98331.69
2022-11-23T03:24:50.249Z,98334.16
2022-11-23T03:27:47.052Z,98336.44
2022-11-23T03:30:24.872Z,98322.00
2022-11-23T03:33:14.185Z,98329.25
2022-11-23T03:36:01.126Z,98331.47
2022-11-23T03:38:48.564Z,98331.47
2022-11-23T03:41:50.779Z,98336.56
2022-11-23T03:44:36.133Z,98328.53
2022-11-23T03:47:22.149Z,98332.00
2022-11-23T03:50:07.977Z,98334.75
2022-11-23T03:52:46.913Z,98329.78
2022-11-23T03:55:27.254Z,98325.59
2022-11-23T03:58:08.064Z,98333.75
2022-11-23T04:00:49.944Z,98331.03
2022-11-23T04:03:34.334Z,98328.81
2022-11-23T04:06:29.546Z,98341.72
2022-11-23T04:09:24.609Z,98330.78
2022-11-23T04:12:23.282Z,98320.66
2022-11-23T04:15:00.921Z,98321.50
2022-11-23T04:17:52.733Z,98325.38
2022-11-23T04:20:28.508Z,98328.91
2022-11-23T04:23:13.660Z,98322.88
2022-11-23T04:25:54.990Z,98318.81
2022-11-23T04:28:39.707Z,98324.41
2022-11-23T04:31:25.011Z,98313.72
2022-11-23T04:34:17.829Z,98321.28
2022-11-23T04:36:55.443Z,98320.63
2022-11-23T04:39:39.906Z,98324.16
2022-11-23T04:42:43.849Z,98318.53
2022-11-23T04:45:27.226Z,98325.59
2022-11-23T04:48:09.586Z,98321.41
2022-11-23T04:50:49.897Z,98332.53
2022-11-23T04:53:36.765Z,98311.31
2022-11-23T04:56:16.473Z,98320.22
2022-11-23T04:58:52.383Z,98331.31
2022-11-23T05:01:39.765Z,98326.81
2022-11-23T05:04:42.195Z,98333.75
2022-11-23T05:07:27.323Z,98329.25
2022-11-23T05:10:07.733Z,98334.41
2022-11-23T05:12:54.327Z,98335.34
2022-11-23T05:15:40.723Z,98331.69
2022-11-23T05:18:20.773Z,98337.22
2022-11-23T05:21:01.642Z,98352.66
2022-11-23T05:23:40.031Z,98351.44
2022-11-23T05:26:33.312Z,98344.69
2022-11-23T05:29:23.739Z,98355.81
2022-11-23T05:32:10.127Z,98354.81
2022-11-23T05:34:55.243Z,98353.16
2022-11-23T05:37:38.707Z,98341.19
2022-11-23T05:40:22.396Z,98332.97
2022-11-23T05:43:10.698Z,98327.00
2022-11-23T05:46:16.331Z,98321.81
2022-11-23T05:48:54.975Z,98321.03
2022-11-23T05:51:32.900Z,98307.75
2022-11-23T05:54:09.661Z,98303.41
2022-11-23T05:57:06.702Z,98315.19
2022-11-23T05:59:56.158Z,98321.06
2022-11-23T06:02:55.910Z,98314.06
2022-11-23T06:05:35.353Z,98305.09
2022-11-23T06:08:22.879Z,98314.34
2022-11-23T06:11:08.229Z,98315.34
2022-11-23T06:13:52.398Z,98319.06
2022-11-23T06:16:30.143Z,98315.34
2022-11-23T06:19:19.149Z,98312.25
2022-11-23T06:22:02.696Z,98324.97
2022-11-23T06:24:44.871Z,98333.41
2022-11-23T06:27:49.827Z,98341.34
2022-11-23T06:30:44.092Z,98335.38
2022-11-23T06:33:25.753Z,98337.84
2022-11-23T06:36:10.160Z,98339.28
2022-11-23T06:39:08.728Z,98335.28
2022-11-23T06:41:46.928Z,98346.59
2022-11-23T06:44:41.628Z,98347.22
2022-11-23T06:47:40.042Z,98354.19
2022-11-23T06:50:25.332Z,98355.44
2022-11-23T06:53:12.823Z,98352.38
2022-11-23T06:56:19.934Z,98346.16
2022-11-23T06:59:02.050Z,98335.47
2022-11-23T07:01:59.434Z,98343.41
2022-11-23T07:04:46.177Z,98353.72
2022-11-23T07:07:33.595Z,98347.09
2022-11-23T07:10:37.060Z,98349.09
2022-11-23T07:13:25.358Z,98344.16
2022-11-23T07:16:13.722Z,98346.34
2022-11-23T07:19:05.306Z,98349.50
2022-11-23T07:21:45.269Z,98350.28
2022-11-23T07:24:32.871Z,98355.19
2022-11-23T07:27:18.707Z,98357.44
2022-11-23T07:30:04.105Z,98354.81
2022-11-23T07:32:51.752Z,98365.16
2022-11-23T07:35:32.983Z,98361.13
2022-11-23T07:38:19.139Z,98362.91
2022-11-23T07:41:01.792Z,98369.41
2022-11-23T07:44:01.681Z,98366.88
2022-11-23T07:46:53.732Z,98365.06
2022-11-23T07:49:41.114Z,98360.63
2022-11-23T07:52:24.728Z,98371.75
2022-11-23T07:55:08.113Z,98364.16
2022-11-23T07:57:57.481Z,98357.72
2022-11-23T08:00:40.294Z,98362.38
2022-11-23T08:03:28.528Z,98365.75
2022-11-23T08:06:10.070Z,98364.78
2022-11-23T08:08:48.734Z,98364.28
2022-11-23T08:11:37.157Z,98362.22
2022-11-23T08:14:22.570Z,98355.53
2022-11-23T08:17:09.719Z,98366.47
2022-11-23T08:19:50.810Z,98361.13
2022-11-23T08:22:42.103Z,98363.16
2022-11-23T08:25:22.980Z,98365.09
2022-11-23T08:28:08.728Z,98366.69
2022-11-23T08:31:00.438Z,98374.75
2022-11-23T08:33:45.752Z,98374.66
2022-11-23T08:36:35.554Z,98367.72
2022-11-23T08:39:22.462Z,98369.22
2022-11-23T08:42:00.567Z,98372.59
2022-11-23T08:44:53.561Z,98365.88
2022-11-23T08:47:42.435Z,98378.16
2022-11-23T08:50:23.167Z,98375.13
2022-11-23T08:53:12.915Z,98371.19
2022-11-23T08:55:56.267Z,98364.59
2022-11-23T08:58:38.838Z,98366.00
2022-11-23T09:01:23.505Z,98367.00
2022-11-23T09:04:04.682Z,98373.88
2022-11-23T09:06:50.510Z,98369.19
2022-11-23T09:09:32.917Z,98379.72
2022-11-23T09:12:17.697Z,98376.91
2022-11-23T09:15:04.043Z,98379.22
2022-11-23T09:17:53.834Z,98376.91
2022-11-23T09:20:31.986Z,98378.69
2022-11-23T09:23:15.064Z,98382.41
2022-11-23T09:26:00.854Z,98377.81
2022-11-23T09:28:45.050Z,98373.53
2022-11-23T09:31:36.476Z,98383.06
2022-11-23T09:34:14.465Z,98368.50
2022-11-23T09:37:00.673Z,98370.38
2022-11-23T09:39:43.538Z,98358.75
2022-11-23T09:42:42.954Z,98366.34
2022-11-23T09:45:53.343Z,98357.78
2022-11-23T09:48:44.313Z,98369.06
2022-11-23T09:51:31.225Z,98369.34
2022-11-23T09:54:23.929Z,98369.63
2022-11-23T09:57:06.328Z,98359.44
2022-11-23T09:59:56.396Z,98363.69
2022-11-23T10:02:37.865Z,98354.31
2022-11-23T10:05:37.868Z,98358.78
2022-11-23T10:08:40.809Z,98355.94
2022-11-23T10:12:21.461Z,98354.59
2022-11-23T10:15:20.899Z,98357.59
2022-11-23T10:18:18.869Z,98351.16
2022-11-23T10:21:19.486Z,98354.78
2022-11-23T10:24:14.863Z,98357.47
2022-11-23T10:26:57.957Z,98356.97
2022-11-23T10:29:40.348Z,98349.16
2022-11-23T10:32:36.176Z,98350.47
2022-11-23T10:35:22.839Z,98358.84
2022-11-23T10:38:19.486Z,98354.91
2022-11-23T10:41:17.997Z,98354.72
2022-11-23T10:44:40.827Z,98358.75
2022-11-23T10:47:45.899Z,98354.25
2022-11-23T10:50:44.961Z,98353.38
2022-11-23T10:53:26.253Z,98359.94
2022-11-23T10:56:20.602Z,98355.41
2022-11-23T10:58:56.741Z,98363.13
2022-11-23T11:01:41.708Z,98358.22
2022-11-23T11:04:26.020Z,98366.28
2022-11-23T11:07:29.204Z,98361.25
2022-11-23T11:10:27.716Z,98357.28
2022-11-23T11:13:22.789Z,98354.53
2022-11-23T11:16:44.020Z,98365.44
2022-11-23T11:19:36.443Z,98368.03
2022-11-23T11:22:25.839Z,98368.72
2022-11-23T11:25:04.205Z,98367.44
2022-11-23T11:27:36.843Z,98373.78
2022-11-23T11:30:30.978Z,98379.28
2022-11-23T11:33:46.668Z,98374.63
2022-11-23T11:36:39.606Z,98374.13
2022-11-23T11:39:31.563Z,98378.31
2022-11-23T11:42:10.270Z,98374.75
2022-11-23T11:44:49.963Z,98368.47
2022-11-23T11:47:42.708Z,98360.16
2022-11-23T11:50:36.950Z,98360.34
2022-11-23T11:53:18.397Z,98359.75
2022-11-23T11:56:15.998Z,98350.44
2022-11-23T11:59:17.422Z,98357.69
2022-11-23T12:02:23.277Z,98357.34
2022-11-23T12:05:32.484Z,98357.94
2022-11-23T12:09:15.138Z,98358.03
2022-11-23T12:11:59.203Z,98352.09
2022-11-23T12:14:37.129Z,98354.06
2022-11-23T12:17:49.802Z,98352.91
2022-11-23T12:20:57.177Z,98348.09
2022-11-23T12:23:49.657Z,98354.53
2022-11-23T12:26:29.213Z,98359.09
2022-11-23T12:29:31.737Z,98364.00
2022-11-23T12:32:56.536Z,98367.41
2022-11-23T12:36:09.278Z,98359.53
2022-11-23T12:39:28.567Z,98360.34
2022-11-23T12:42:23.950Z,98362.34
2022-11-23T12:45:41.682Z,98356.59
2022-11-23T12:48:46.431Z,98354.72
2022-11-23T12:51:36.952Z,98352.63
2022-11-23T12:54:56.888Z,98353.44
2022-11-23T12:57:57.850Z,98345.16
2022-11-23T13:00:45.117Z,98349.09
2022-11-23T13:03:53.662Z,98347.91
2022-11-23T13:10:30.064Z,98341.25
2022-11-23T13:13:33.978Z,98350.66
2022-11-23T13:16:29.832Z,98348.56
2022-11-23T13:19:41.103Z,98348.88
2022-11-23T13:22:35.811Z,98353.31
2022-11-23T13:25:25.338Z,98352.25
2022-11-23T13:28:25.016Z,98359.50
2022-11-23T13:31:23.878Z,98359.00
2022-11-23T13:34:04.711Z,98365.66
2022-11-23T13:40:18.171Z,98373.44
2022-11-23T13:43:12.255Z,98376.47
2022-11-23T13:46:43.714Z,98376.53
2022-11-23T13:50:08.831Z,98375.31
2022-11-23T13:52:54.284Z,98373.22
2022-11-23T13:55:40.210Z,98379.25
2022-11-23T13:58:30.374Z,98377.53
2022-11-23T14:01:11.158Z,98381.78
2022-11-23T14:04:19.042Z,98390.63
2022-11-23T14:07:07.529Z,98391.03
2022-11-23T14:10:06.714Z,98394.78
2022-11-23T14:13:07.202Z,98392.47
2022-11-23T14:15:49.346Z,98393.06
2022-11-23T14:19:04.272Z,98394.31
2022-11-23T14:22:03.425Z,98395.47
2022-11-23T14:25:04.562Z,98394.88
2022-11-23T14:28:02.723Z,98393.91
2022-11-23T14:30:53.680Z,98395.66
2022-11-23T14:33:49.070Z,98398.41
2022-11-23T14:36:41.693Z,98399.16
2022-11-23T14:40:06.744Z,98394.50
2022-11-23T14:42:54.346Z,98392.28
2022-11-23T14:45:36.419Z,98386.84
2022-11-23T14:48:33.107Z,98385.22
2022-11-23T14:51:09.300Z,98383.06
2022-11-23T14:53:55.444Z,98389.19
2022-11-23T14:56:44.118Z,98390.94
2022-11-23T14:59:40.734Z,98384.81
2022-11-23T15:02:39.073Z,98395.13
2022-11-23T15:05:16.519Z,98402.50
2022-11-23T15:08:24.780Z,98397.34
2022-11-23T15:11:16.105Z,98404.88
2022-11-23T15:14:04.819Z,98404.50
2022-11-23T15:16:51.687Z,98405.78
2022-11-23T15:19:38.553Z,98414.28
2022-11-23T15:22:18.707Z,98412.94
2022-11-23T15:25:19.092Z,98421.13
2022-11-23T15:28:05.372Z,98418.84
2022-11-23T15:30:58.245Z,98411.16
2022-11-23T15:33:37.622Z,98414.03
2022-11-23T15:36:18.754Z,98413.91
2022-11-23T15:38:57.444Z,98414.97
2022-11-23T15:41:48.323Z,98411.47
2022-11-23T15:44:41.754Z,98410.84
2022-11-23T15:47:40.001Z,98412.13
2022-11-23T15:50:32.699Z,98416.97
2022-11-23T15:53:14.755Z,98414.88
2022-11-23T15:55:51.040Z,98419.72
2022-11-23T15:58:39.987Z,98423.75
2022-11-23T16:01:19.714Z,98425.97
2022-11-23T16:04:08.489Z,98431.06
2022-11-23T16:06:56.672Z,98426.88
2022-11-23T16:09:52.729Z,98431.34
2022-11-23T16:12:47.818Z,98431.28
2022-11-23T16:15:43.691Z,98437.47
2022-11-23T16:18:25.767Z,98431.72
2022-11-23T16:21:11.503Z,98437.53
2022-11-23T16:24:04.637Z,98435.22
2022-11-23T16:26:45.697Z,98428.38
2022-11-23T16:29:41.911Z,98437.97
2022-11-23T16:32:31.859Z,98435.66
2022-11-23T16:35:20.199Z,98433.53
2022-11-23T16:38:03.844Z,98444.16
2022-11-23T16:40:48.131Z,98443.00
2022-11-23T16:43:32.689Z,98450.78
2022-11-23T16:46:04.576Z,98445.66
2022-11-23T16:48:48.125Z,98448.78
2022-11-23T16:51:32.449Z,98449.84
2022-11-23T16:54:13.582Z,98448.34
2022-11-23T16:56:52.820Z,98455.22
2022-11-23T16:59:42.410Z,98458.03
2022-11-23T17:02:27.098Z,98460.22
2022-11-23T17:05:16.473Z,98470.97
2022-11-23T17:07:54.729Z,98464.38
2022-11-23T17:10:38.971Z,98478.84
2022-11-23T17:13:25.058Z,98479.66
2022-11-23T17:16:13.457Z,98481.13
2022-11-23T17:18:51.002Z,98474.50
2022-11-23T17:21:36.709Z,98476.00
2022-11-23T17:24:19.905Z,98473.50
2022-11-23T17:26:58.466Z,98476.28
2022-11-23T17:29:41.939Z,98478.53
2022-11-23T17:32:33.162Z,98481.94
2022-11-23T17:35:12.467Z,98487.28
2022-11-23T17:37:46.553Z,98487.41
2022-11-23T17:40:38.655Z,98478.44
2022-11-23T17:43:23.259Z,98482.47
2022-11-23T17:46:07.107Z,98484.53
2022-11-23T17:48:58.752Z,98483.94
2022-11-23T17:51:44.759Z,98477.63
2022-11-23T17:54:24.536Z,98475.06
2022-11-23T17:57:08.299Z,98475.81
2022-11-23T17:59:58.276Z,98475.91
2022-11-23T18:02:50.007Z,98469.38
2022-11-23T18:05:30.729Z,98476.34
2022-11-23T18:08:11.497Z,98482.94
2022-11-23T18:10:57.853Z,98481.56
2022-11-23T18:13:37.692Z,98489.34
2022-11-23T18:16:16.986Z,98487.16
2022-11-23T18:19:05.923Z,98493.84
2022-11-23T18:21:49.418Z,98491.50
2022-11-23T18:24:29.110Z,98493.03
2022-11-23T18:27:21.150Z,98496.53
2022-11-23T18:30:16.664Z,98492.81
2022-11-23T18:32:58.832Z,98496.22
2022-11-23T18:35:37.853Z,98498.66
2022-11-23T18:38:19.046Z,98491.03
2022-11-23T18:41:16.768Z,98494.47
2022-11-23T18:43:55.575Z,98492.00
2022-11-23T18:46:30.595Z,98486.69
2022-11-23T18:49:08.351Z,98489.88
2022-11-23T18:51:47.546Z,98489.47
2022-11-23T18:54:30.688Z,98497.84
2022-11-23T18:57:17.002Z,98498.81
2022-11-23T19:00:00.344Z,98499.53
2022-11-23T19:02:50.081Z,98495.03
2022-11-23T19:05:33.753Z,98500.41
2022-11-23T19:08:17.383Z,98498.50
2022-11-23T19:11:19.463Z,98501.13
2022-11-23T19:14:12.274Z,98498.94
2022-11-23T19:16:55.648Z,98507.78
2022-11-23T19:19:50.313Z,98500.63
2022-11-23T19:22:31.141Z,98499.25
2022-11-23T19:25:13.654Z,98498.81
2022-11-23T19:27:51.650Z,98506.50
2022-11-23T19:30:38.169Z,98507.53
2022-11-23T19:33:28.257Z,98505.97
2022-11-23T19:36:13.447Z,98507.97
2022-11-23T19:38:52.541Z,98512.13
2022-11-23T19:41:36.354Z,98520.19
2022-11-23T19:44:21.734Z,98518.91
2022-11-23T19:46:54.709Z,98520.59
2022-11-23T19:49:35.878Z,98533.41
2022-11-23T19:52:22.171Z,98527.53
2022-11-23T19:55:07.814Z,98530.31
2022-11-23T19:57:45.940Z,98528.78
2022-11-23T20:00:26.739Z,98529.25
2022-11-23T20:03:05.691Z,98541.78
2022-11-23T20:05:57.495Z,98544.22
2022-11-23T20:08:39.758Z,98536.22
2022-11-23T20:11:34.681Z,98540.66
2022-11-23T20:14:20.926Z,98539.22
2022-11-23T20:17:07.209Z,98546.13
2022-11-23T20:19:47.457Z,98541.59
2022-11-23T20:22:29.144Z,98547.28
2022-11-23T20:25:12.849Z,98551.84
2022-11-23T20:27:54.111Z,98541.09
2022-11-23T20:30:49.251Z,98554.19
2022-11-23T20:33:26.694Z,98544.56
2022-11-23T20:36:24.748Z,98556.28
2022-11-23T20:39:16.117Z,98558.78
2022-11-23T20:42:03.816Z,98561.66
2022-11-23T20:44:45.680Z,98563.25
2022-11-23T20:47:33.992Z,98567.38
2022-11-23T20:50:25.109Z,98570.75
2022-11-23T20:53:17.476Z,98578.25
2022-11-23T20:56:07.213Z,98569.88
2022-11-23T20:58:51.452Z,98573.97
2022-11-23T21:01:30.768Z,98574.72
2022-11-23T21:04:13.914Z,98580.94
2022-11-23T21:06:54.652Z,98577.88
2022-11-23T21:09:36.639Z,98583.00
2022-11-23T21:12:33.776Z,98577.06
2022-11-23T21:15:18.129Z,98585.09
2022-11-23T21:18:07.682Z,98584.31
2022-11-23T21:20:48.062Z,98585.19
2022-11-23T21:23:37.206Z,98598.41
2022-11-23T21:26:23.682Z,98592.84
2022-11-23T21:29:09.408Z,98593.03
2022-11-23T21:31:53.843Z,98589.69
2022-11-23T21:34:40.201Z,98593.69
2022-11-23T21:37:27.240Z,98593.31
2022-11-23T21:40:11.083Z,98595.38
2022-11-23T21:42:58.241Z,98599.88
2022-11-23T21:45:45.717Z,98593.78
2022-11-23T21:48:51.704Z,98591.75
2022-11-23T21:51:42.408Z,98604.94
2022-11-23T21:54:26.694Z,98608.22
2022-11-23T21:57:09.045Z,98611.97
2022-11-23T21:59:53.656Z,98609.13
2022-11-23T22:02:37.731Z,98607.28
2022-11-23T22:05:24.068Z,98611.56
2022-11-23T22:08:31.061Z,98610.91
2022-11-23T22:11:19.741Z,98611.50
2022-11-23T22:14:03.649Z,98606.38
2022-11-23T22:16:42.507Z,98607.56
2022-11-23T22:19:32.697Z,98607.41
2022-11-23T22:22:10.856Z,98612.75
2022-11-23T22:24:54.385Z,98604.53
2022-11-23T22:27:37.621Z,98605.72
2022-11-23T22:30:27.902Z,98608.63
2022-11-23T22:33:14.142Z,98608.22
2022-11-23T22:36:04.703Z,98614.25
2022-11-23T22:38:56.582Z,98601.38
2022-11-23T22:41:47.590Z,98610.44
2022-11-23T22:44:38.490Z,98610.88
2022-11-23T22:47:26.138Z,98609.31
2022-11-23T22:50:04.621Z,98615.97
2022-11-23T22:52:48.252Z,98615.63
2022-11-23T22:55:34.464Z,98623.38
2022-11-23T22:58:26.226Z,98625.50
2022-11-23T23:01:30.116Z,98627.66
2022-11-23T23:04:13.986Z,98624.44
2022-11-23T23:06:54.603Z,98625.50
2022-11-23T23:09:43.326Z,98628.00
2022-11-23T23:12:35.647Z,98635.84
2022-11-23T23:15:21.929Z,98639.19
2022-11-23T23:18:00.680Z,98630.50
2022-11-23T23:20:45.494Z,98640.19
2022-11-23T23:23:29.274Z,98639.38
2022-11-23T23:26:17.312Z,98644.91
2022-11-23T23:29:04.388Z,98637.03
2022-11-23T23:31:52.857Z,98640.88
2022-11-23T23:34:37.076Z,98640.25
2022-11-23T23:37:23.031Z,98645.00
2022-11-23T23:40:12.647Z,98649.34
2022-11-23T23:43:04.020Z,98647.69
2022-11-23T23:45:53.766Z,98654.06
2022-11-23T23:48:25.859Z,98650.53
2022-11-23T23:51:16.571Z,98651.94
2022-11-23T23:54:03.319Z,98652.59
2022-11-23T23:56:39.802Z,98656.97
2022-11-23T23:59:28.891Z,98654.28
